createdAt,value
2023-04-10T00:01:41.368Z,75.42
2023-04-10T00:04:10.039Z,75.81
2023-04-10T00:06:38.173Z,76.67
2023-04-10T00:09:06.520Z,77.89
2023-04-10T00:11:35.251Z,78.32
2023-04-10T00:14:03.678Z,78.42
2023-04-10T00:16:34.534Z,79.43
2023-04-10T00:19:03.210Z,79.04
2023-04-10T00:21:32.161Z,80.20
2023-04-10T00:24:02.366Z,81.14
2023-04-10T00:26:30.554Z,81.91
2023-04-10T00:28:58.685Z,82.01
2023-04-10T00:31:26.784Z,81.19
2023-04-10T00:33:56.531Z,82.12
2023-04-10T00:36:24.691Z,81.61
2023-04-10T00:38:54.657Z,81.46
2023-04-10T00:41:24.081Z,81.36
2023-04-10T00:43:57.592Z,80.85
2023-04-10T00:46:26.009Z,81.43
2023-04-10T00:48:57.546Z,80.51
2023-04-10T00:51:26.674Z,80.90
2023-04-10T00:53:56.144Z,81.17
2023-04-10T00:56:26.110Z,80.98
2023-04-10T00:58:56.724Z,80.60
2023-04-10T01:01:24.890Z,80.83
2023-04-10T01:03:54.321Z,81.75
2023-04-10T01:06:32.283Z,82.67
2023-04-10T01:09:06.764Z,81.27
2023-04-10T01:11:46.481Z,80.79
2023-04-10T01:14:24.868Z,81.88
2023-04-10T01:16:59.620Z,82.07
2023-04-10T01:19:51.630Z,82.05
2023-04-10T01:22:25.032Z,82.89
2023-04-10T01:25:13.067Z,83.34
2023-04-10T01:28:13.045Z,83.59
2023-04-10T01:30:44.448Z,84.50
2023-04-10T01:33:17.853Z,84.47
2023-04-10T01:35:51.299Z,84.15
2023-04-10T01:38:21.872Z,85.09
2023-04-10T01:40:54.843Z,84.10
2023-04-10T01:43:23.698Z,85.87
2023-04-10T01:45:54.083Z,86.86
2023-04-10T01:48:22.506Z,88.80
2023-04-10T01:50:51.914Z,88.85
2023-04-10T01:53:21.133Z,89.41
2023-04-10T01:55:50.524Z,88.76
2023-04-10T01:58:18.967Z,88.35
2023-04-10T02:00:47.223Z,89.42
2023-04-10T02:03:16.981Z,89.24
2023-04-10T02:06:02.521Z,89.48
2023-04-10T02:08:37.917Z,89.43
2023-04-10T02:11:14.601Z,88.83
2023-04-10T02:13:44.019Z,89.32
2023-04-10T02:16:17.628Z,90.21
2023-04-10T02:18:49.046Z,89.99
2023-04-10T02:21:17.611Z,91.34
2023-04-10T02:23:45.874Z,91.43
2023-04-10T02:26:14.157Z,91.21
2023-04-10T02:28:42.290Z,91.53
2023-04-10T02:31:10.647Z,91.41
2023-04-10T02:33:41.370Z,90.94
2023-04-10T02:36:11.174Z,90.67
2023-04-10T02:38:39.285Z,91.82
2023-04-10T02:41:07.834Z,92.21
2023-04-10T02:43:36.144Z,92.31
2023-04-10T02:46:04.218Z,92.77
2023-04-10T02:48:32.669Z,93.10
2023-04-10T02:51:00.872Z,92.77
2023-04-10T02:53:30.518Z,91.92
2023-04-10T02:55:58.709Z,91.32
2023-04-10T02:58:27.891Z,92.18
2023-04-10T03:00:56.732Z,93.83
2023-04-10T03:03:25.179Z,94.32
2023-04-10T03:05:54.325Z,94.89
2023-04-10T03:08:29.711Z,94.72
2023-04-10T03:10:59.278Z,94.11
2023-04-10T03:13:35.308Z,92.70
2023-04-10T03:16:03.922Z,93.39
2023-04-10T03:18:34.356Z,93.81
2023-04-10T03:21:05.546Z,93.48
2023-04-10T03:23:33.691Z,93.67
2023-04-10T03:26:04.733Z,94.62
2023-04-10T03:28:33.787Z,95.09
2023-04-10T03:31:02.844Z,94.82
2023-04-10T03:33:31.477Z,93.92
2023-04-10T03:35:59.766Z,94.44
2023-04-10T03:38:27.963Z,96.47
2023-04-10T03:40:56.270Z,96.87
2023-04-10T03:43:26.700Z,96.59
2023-04-10T03:45:54.838Z,97.70
2023-04-10T03:48:28.366Z,97.27
2023-04-10T03:50:57.163Z,98.07
2023-04-10T03:53:25.760Z,99.11
2023-04-10T03:55:53.964Z,98.38
2023-04-10T03:58:22.200Z,98.14
2023-04-10T04:00:52.385Z,98.14
2023-04-10T04:03:20.679Z,99.36
2023-04-10T04:05:50.493Z,100.00
2023-04-10T04:08:18.708Z,100.00
2023-04-10T04:10:46.957Z,99.91
2023-04-10T04:13:15.043Z,99.24
2023-04-10T04:15:51.436Z,98.67
2023-04-10T04:18:21.423Z,98.56
2023-04-10T04:20:53.476Z,96.42
2023-04-10T04:23:21.667Z,96.82
2023-04-10T04:25:52.901Z,97.91
2023-04-10T04:28:21.196Z,98.12
2023-04-10T04:30:49.264Z,98.85
2023-04-10T04:33:17.350Z,98.32
2023-04-10T04:35:47.029Z,97.83
2023-04-10T04:38:16.809Z,98.45
2023-04-10T04:40:45.021Z,98.27
2023-04-10T04:43:13.214Z,97.52
2023-04-10T04:45:41.405Z,97.27
2023-04-10T04:48:09.528Z,98.03
2023-04-10T04:50:46.693Z,97.70
2023-04-10T04:53:15.118Z,99.52
2023-04-10T04:55:43.244Z,100.00
2023-04-10T04:58:11.413Z,100.00
2023-04-10T05:00:39.607Z,100.00
2023-04-10T05:03:08.106Z,100.00
2023-04-10T05:05:36.474Z,100.00
2023-04-10T05:08:06.180Z,100.00
2023-04-10T05:10:34.370Z,100.00
2023-04-10T05:13:05.254Z,100.00
2023-04-10T05:15:33.892Z,100.00
2023-04-10T05:18:02.492Z,100.00
2023-04-10T05:20:35.943Z,100.00
2023-04-10T05:23:14.422Z,100.00
2023-04-10T05:25:42.664Z,100.00
2023-04-10T05:28:10.740Z,99.57
2023-04-10T05:30:38.941Z,99.85
2023-04-10T05:33:07.706Z,98.71
2023-04-10T05:35:36.602Z,98.74
2023-04-10T05:38:04.806Z,98.27
2023-04-10T05:40:34.431Z,96.94
2023-04-10T05:43:02.708Z,95.97
2023-04-10T05:45:31.015Z,96.07
2023-04-10T05:47:59.295Z,94.72
2023-04-10T05:50:29.220Z,94.55
2023-04-10T05:52:58.583Z,95.06
2023-04-10T05:55:26.869Z,94.16
2023-04-10T05:57:56.553Z,94.13
2023-04-10T06:00:24.903Z,93.54
2023-04-10T06:02:53.380Z,92.96
2023-04-10T06:05:21.930Z,92.01
2023-04-10T06:07:50.196Z,91.99
2023-04-10T06:10:18.397Z,90.84
2023-04-10T06:12:46.825Z,90.61
2023-04-10T06:15:16.822Z,89.83
2023-04-10T06:17:49.004Z,89.19
2023-04-10T06:20:17.131Z,88.23
2023-04-10T06:22:45.417Z,87.87
2023-04-10T06:25:15.997Z,87.76
2023-04-10T06:27:44.224Z,87.66
2023-04-10T06:30:12.520Z,87.37
2023-04-10T06:32:42.381Z,86.65
2023-04-10T06:35:11.652Z,85.91
2023-04-10T06:37:40.136Z,85.92
2023-04-10T06:40:10.136Z,84.44
2023-04-10T06:42:40.247Z,84.48
2023-04-10T06:45:09.843Z,82.94
2023-04-10T06:47:38.294Z,81.72
2023-04-10T06:50:08.373Z,82.02
2023-04-10T06:52:36.551Z,81.86
2023-04-10T06:55:05.084Z,81.10
2023-04-10T06:57:33.158Z,80.87
2023-04-10T07:00:01.360Z,79.95
2023-04-10T07:02:29.769Z,79.01
2023-04-10T07:04:58.143Z,78.89
2023-04-10T07:07:28.834Z,77.67
2023-04-10T07:09:58.067Z,77.86
2023-04-10T07:12:27.025Z,77.40
2023-04-10T07:14:55.664Z,76.72
2023-04-10T07:17:25.538Z,76.29
2023-04-10T07:19:53.699Z,75.48
2023-04-10T07:22:21.950Z,75.82
2023-04-10T07:24:51.583Z,75.61
2023-04-10T07:27:20.885Z,74.17
2023-04-10T07:29:49.114Z,75.17
2023-04-10T07:32:18.900Z,73.63
2023-04-10T07:34:49.292Z,73.31
2023-04-10T07:37:18.190Z,72.06
2023-04-10T07:39:46.453Z,71.52
2023-04-10T07:42:16.041Z,72.09
2023-04-10T07:44:44.271Z,70.89
2023-04-10T07:47:13.635Z,71.04
2023-04-10T07:49:42.610Z,70.87
2023-04-10T07:52:10.959Z,69.96
2023-04-10T07:54:39.300Z,69.59
2023-04-10T07:57:07.447Z,68.42
2023-04-10T07:59:43.193Z,68.55
2023-04-10T08:02:11.583Z,65.49
2023-04-10T08:04:40.424Z,64.64
2023-04-10T08:07:08.665Z,63.19
2023-04-10T08:09:39.528Z,63.46
2023-04-10T08:12:07.758Z,62.75
2023-04-10T08:14:38.607Z,61.11
2023-04-10T08:17:07.227Z,60.73
2023-04-10T08:19:36.362Z,59.30
2023-04-10T08:22:04.923Z,57.96
2023-04-10T08:24:33.085Z,57.23
2023-04-10T08:27:03.524Z,56.78
2023-04-10T08:29:31.748Z,57.30
2023-04-10T08:32:01.750Z,56.63
2023-04-10T08:34:29.864Z,56.51
2023-04-10T08:36:58.645Z,55.48
2023-04-10T08:39:26.997Z,55.90
2023-04-10T08:41:55.519Z,54.51
2023-04-10T08:44:23.795Z,55.32
2023-04-10T08:46:53.795Z,53.81
2023-04-10T08:49:31.734Z,53.67
2023-04-10T08:52:03.401Z,52.30
2023-04-10T08:54:35.428Z,51.22
2023-04-10T08:57:04.869Z,52.04
2023-04-10T08:59:41.786Z,51.53
2023-04-10T09:02:11.500Z,49.12
2023-04-10T09:04:41.354Z,50.64
2023-04-10T09:07:09.652Z,50.45
2023-04-10T09:09:39.616Z,51.22
2023-04-10T09:12:10.503Z,48.54
2023-04-10T09:14:39.936Z,48.81
2023-04-10T09:17:17.221Z,45.92
2023-04-10T09:19:48.012Z,46.06
2023-04-10T09:22:16.964Z,46.14
2023-04-10T09:24:46.751Z,46.23
2023-04-10T09:27:29.660Z,45.17
2023-04-10T09:29:58.083Z,45.51
2023-04-10T09:32:40.907Z,45.26
2023-04-10T09:35:11.581Z,45.43
2023-04-10T09:37:47.166Z,44.78
2023-04-10T09:40:23.148Z,44.21
2023-04-10T09:42:51.609Z,44.77
2023-04-10T09:45:20.938Z,44.09
2023-04-10T09:48:03.685Z,44.49
2023-04-10T09:50:41.021Z,44.89
2023-04-10T09:53:10.513Z,44.40
2023-04-10T09:55:39.346Z,44.38
2023-04-10T09:58:08.200Z,43.85
2023-04-10T10:00:47.698Z,43.15
2023-04-10T10:03:19.695Z,43.14
2023-04-10T10:05:50.981Z,43.51
2023-04-10T10:08:19.659Z,42.16
2023-04-10T10:10:49.718Z,42.55
2023-04-10T10:13:22.430Z,42.22
2023-04-10T10:15:57.505Z,42.46
2023-04-10T10:18:32.673Z,40.95
2023-04-10T10:21:03.795Z,41.03
2023-04-10T10:23:34.628Z,40.81
2023-04-10T10:26:06.678Z,42.25
2023-04-10T10:28:38.250Z,42.04
2023-04-10T10:31:07.194Z,42.12
2023-04-10T10:33:37.548Z,42.31
2023-04-10T10:36:08.494Z,40.98
2023-04-10T10:38:41.579Z,41.00
2023-04-10T10:41:18.040Z,41.82
2023-04-10T10:43:55.817Z,41.45
2023-04-10T10:46:34.208Z,41.30
2023-04-10T10:49:02.580Z,39.89
2023-04-10T10:51:48.199Z,40.33
2023-04-10T10:54:33.169Z,40.31
2023-04-10T10:57:03.005Z,40.17
2023-04-10T10:59:57.039Z,39.86
2023-04-10T11:02:38.497Z,39.53
2023-04-10T11:05:07.366Z,39.80
2023-04-10T11:08:12.707Z,39.61
2023-04-10T11:11:02.952Z,39.47
2023-04-10T11:13:33.621Z,38.90
2023-04-10T11:16:03.360Z,39.44
2023-04-10T11:19:14.736Z,39.40
2023-04-10T11:22:06.412Z,38.24
2023-04-10T11:24:59.125Z,38.34
2023-04-10T11:27:41.195Z,38.97
2023-04-10T11:30:29.519Z,38.54
2023-04-10T11:32:58.241Z,39.73
2023-04-10T11:35:27.383Z,38.69
2023-04-10T11:38:13.092Z,38.00
2023-04-10T11:41:07.043Z,38.77
2023-04-10T11:43:36.305Z,38.38
2023-04-10T11:46:07.613Z,38.39
2023-04-10T11:48:37.124Z,39.25
2023-04-10T11:51:09.419Z,38.32
2023-04-10T11:53:37.687Z,37.74
2023-04-10T11:56:08.843Z,37.10
2023-04-10T11:58:40.878Z,38.39
2023-04-10T12:01:14.328Z,38.55
2023-04-10T12:03:44.825Z,38.41
2023-04-10T12:06:14.574Z,38.40
2023-04-10T12:08:45.387Z,38.44
2023-04-10T12:11:16.139Z,38.46
2023-04-10T12:13:44.629Z,37.25
2023-04-10T12:16:14.064Z,38.16
2023-04-10T12:18:43.528Z,37.91
2023-04-10T12:21:12.064Z,38.50
2023-04-10T12:23:40.824Z,38.00
2023-04-10T12:26:12.255Z,37.49
2023-04-10T12:28:43.560Z,37.56
2023-04-10T12:31:11.850Z,37.68
2023-04-10T12:33:41.097Z,37.81
2023-04-10T12:36:22.762Z,36.90
2023-04-10T12:38:50.959Z,37.39
2023-04-10T12:41:24.317Z,37.11
2023-04-10T12:43:54.908Z,36.32
2023-04-10T12:46:28.017Z,37.16
2023-04-10T12:48:57.092Z,36.61
2023-04-10T12:51:47.614Z,37.17
2023-04-10T12:54:35.018Z,36.25
2023-04-10T12:57:04.763Z,36.93
2023-04-10T12:59:34.677Z,36.72
2023-04-10T13:02:02.951Z,36.87
2023-04-10T13:04:32.918Z,37.10
2023-04-10T13:07:01.869Z,37.40
2023-04-10T13:09:30.092Z,36.85
2023-04-10T13:12:00.180Z,37.42
2023-04-10T13:14:28.448Z,37.72
2023-04-10T13:16:58.053Z,37.37
2023-04-10T13:19:28.450Z,37.08
2023-04-10T13:21:57.026Z,37.76
2023-04-10T13:24:25.406Z,37.13
2023-04-10T13:26:53.723Z,37.67
2023-04-10T13:29:21.886Z,37.92
2023-04-10T13:31:52.965Z,38.44
2023-04-10T13:34:22.649Z,37.80
2023-04-10T13:36:51.102Z,38.22
2023-04-10T13:39:19.455Z,37.69
2023-04-10T13:41:47.732Z,37.80
2023-04-10T13:44:16.052Z,38.24
2023-04-10T13:46:48.481Z,37.41
2023-04-10T13:49:18.039Z,37.32
2023-04-10T13:51:51.048Z,37.68
2023-04-10T13:54:20.208Z,37.18
2023-04-10T13:56:48.596Z,37.66
2023-04-10T13:59:16.806Z,37.58
2023-04-10T14:01:45.593Z,37.84
2023-04-10T14:04:21.653Z,37.41
2023-04-10T14:06:53.157Z,38.21
2023-04-10T14:09:21.489Z,37.23
2023-04-10T14:12:00.612Z,37.52
2023-04-10T14:14:28.867Z,38.16
2023-04-10T14:16:59.483Z,37.58
2023-04-10T14:19:27.605Z,37.75
2023-04-10T14:21:57.248Z,37.81
2023-04-10T14:24:25.457Z,37.19
2023-04-10T14:27:01.596Z,37.56
2023-04-10T14:32:01.842Z,38.32
2023-04-10T14:34:30.097Z,38.11
2023-04-10T14:37:05.899Z,37.65
2023-04-10T14:39:37.364Z,37.83
2023-04-10T14:42:34.273Z,37.73
2023-04-10T14:45:13.581Z,38.34
2023-04-10T14:47:45.021Z,37.88
2023-04-10T14:50:16.010Z,37.68
2023-04-10T14:52:49.980Z,37.74
2023-04-10T14:55:26.441Z,37.10
2023-04-10T14:58:18.039Z,36.94
2023-04-10T15:00:46.322Z,37.69
2023-04-10T15:03:14.847Z,37.89
2023-04-10T15:05:51.089Z,37.59
2023-04-10T15:08:20.862Z,37.62
2023-04-10T15:10:53.129Z,37.41
2023-04-10T15:13:22.710Z,37.82
2023-04-10T15:15:51.437Z,38.78
2023-04-10T15:18:21.046Z,38.16
2023-04-10T15:20:49.344Z,38.23
2023-04-10T15:23:24.340Z,38.39
2023-04-10T15:26:13.716Z,38.78
2023-04-10T15:29:21.814Z,38.95
2023-04-10T15:31:47.903Z,39.37
2023-04-10T15:34:20.016Z,39.28
2023-04-10T15:36:48.257Z,38.53
2023-04-10T15:39:16.568Z,38.43
2023-04-10T15:41:48.399Z,36.30
2023-04-10T15:44:41.374Z,35.14
2023-04-10T15:47:13.853Z,34.17
2023-04-10T15:49:42.136Z,33.89
2023-04-10T15:52:10.237Z,33.74
2023-04-10T15:54:42.765Z,33.84
2023-04-10T15:57:19.252Z,33.64
2023-04-10T16:00:13.535Z,32.88
2023-04-10T16:02:41.943Z,32.29
2023-04-10T16:05:14.269Z,32.12
2023-04-10T16:07:44.048Z,31.83
2023-04-10T16:10:12.681Z,31.04
2023-04-10T16:12:42.476Z,31.61
2023-04-10T16:15:12.195Z,31.23
2023-04-10T16:17:40.716Z,32.35
2023-04-10T16:20:14.531Z,32.63
2023-04-10T16:22:54.393Z,32.92
2023-04-10T16:25:34.108Z,33.46
2023-04-10T16:28:30.388Z,34.14
2023-04-10T16:32:06.758Z,34.17
2023-04-10T16:33:55.903Z,34.30
2023-04-10T16:36:46.502Z,34.54
2023-04-10T16:39:33.728Z,34.74
2023-04-10T16:42:03.608Z,35.13
2023-04-10T16:44:37.578Z,35.15
2023-04-10T16:47:05.902Z,36.33
2023-04-10T16:49:34.101Z,36.63
2023-04-10T16:52:02.251Z,36.91
2023-04-10T16:54:40.435Z,37.48
2023-04-10T16:57:08.640Z,37.47
2023-04-10T16:59:46.088Z,37.92
2023-04-10T17:02:14.343Z,39.15
2023-04-10T17:04:42.650Z,39.90
2023-04-10T17:07:12.086Z,40.52
2023-04-10T17:09:40.237Z,41.24
2023-04-10T17:12:08.740Z,42.00
2023-04-10T17:14:39.545Z,42.33
2023-04-10T17:17:09.465Z,42.84
2023-04-10T17:19:38.725Z,43.70
2023-04-10T17:22:15.634Z,43.93
2023-04-10T17:24:45.265Z,44.42
2023-04-10T17:27:13.474Z,45.17
2023-04-10T17:29:42.020Z,45.71
2023-04-10T17:32:11.854Z,46.01
2023-04-10T17:34:42.485Z,46.46
2023-04-10T17:37:10.937Z,47.09
2023-04-10T17:39:41.394Z,47.29
2023-04-10T17:42:09.959Z,47.58
2023-04-10T17:44:40.361Z,48.51
2023-04-10T17:47:08.461Z,48.35
2023-04-10T17:49:43.056Z,48.77
2023-04-10T17:52:11.225Z,49.09
2023-04-10T17:54:39.397Z,49.60
2023-04-10T17:57:07.724Z,49.43
2023-04-10T17:59:41.490Z,49.91
2023-04-10T18:02:12.267Z,50.69
2023-04-10T18:04:41.944Z,50.75
2023-04-10T18:07:10.089Z,51.37
2023-04-10T18:09:38.776Z,51.44
2023-04-10T18:12:06.908Z,51.93
2023-04-10T18:14:37.158Z,51.77
2023-04-10T18:17:06.973Z,53.06
2023-04-10T18:19:35.082Z,53.34
2023-04-10T18:22:04.637Z,53.78
2023-04-10T18:24:36.580Z,54.02
2023-04-10T18:27:04.881Z,53.97
2023-04-10T18:29:33.428Z,55.02
2023-04-10T18:32:01.797Z,54.76
2023-04-10T18:34:37.961Z,55.47
2023-04-10T18:37:09.667Z,54.93
2023-04-10T18:39:38.797Z,56.50
2023-04-10T18:42:11.187Z,56.47
2023-04-10T18:44:42.999Z,57.42
2023-04-10T18:47:11.799Z,57.73
2023-04-10T18:49:44.322Z,58.42
2023-04-10T18:52:36.695Z,58.39
2023-04-10T18:55:02.926Z,58.75
2023-04-10T18:57:31.307Z,59.37
2023-04-10T19:00:10.012Z,59.36
2023-04-10T19:02:39.236Z,60.12
2023-04-10T19:05:08.700Z,60.55
2023-04-10T19:08:00.775Z,61.00
2023-04-10T19:10:54.917Z,61.56
2023-04-10T19:13:21.127Z,61.88
2023-04-10T19:15:50.086Z,62.65
2023-04-10T19:18:19.841Z,62.64
2023-04-10T19:20:52.962Z,62.76
2023-04-10T19:23:23.224Z,62.86
2023-04-10T19:25:54.262Z,64.24
2023-04-10T19:28:24.579Z,63.88
2023-04-10T19:30:53.116Z,65.03
2023-04-10T19:33:21.547Z,64.37
2023-04-10T19:35:59.221Z,65.13
2023-04-10T19:38:30.787Z,65.70
2023-04-10T19:40:59.077Z,65.45
2023-04-10T19:43:27.377Z,65.46
2023-04-10T19:45:58.745Z,66.47
2023-04-10T19:48:27.783Z,66.29
2023-04-10T19:50:59.365Z,66.77
2023-04-10T19:53:29.361Z,67.34
2023-04-10T19:55:57.684Z,67.08
2023-04-10T20:01:03.770Z,67.49
2023-04-10T20:03:33.062Z,68.22
2023-04-10T20:06:01.722Z,68.33
2023-04-10T20:08:31.616Z,67.98
2023-04-10T20:10:59.888Z,69.10
2023-04-10T20:13:27.979Z,68.47
2023-04-10T20:15:59.119Z,69.98
2023-04-10T20:18:28.565Z,69.71
2023-04-10T20:20:56.939Z,70.11
2023-04-10T20:23:25.029Z,70.60
2023-04-10T20:25:54.789Z,70.48
2023-04-10T20:28:22.956Z,70.73
2023-04-10T20:31:00.218Z,70.70
2023-04-10T20:33:28.422Z,71.16
2023-04-10T20:35:56.660Z,71.08
2023-04-10T20:38:24.837Z,72.01
2023-04-10T20:41:04.884Z,72.13
2023-04-10T20:43:33.219Z,72.19
2023-04-10T20:46:05.459Z,72.59
2023-04-10T20:48:33.764Z,72.47
2023-04-10T20:51:01.886Z,72.95
2023-04-10T20:53:30.349Z,73.34
2023-04-10T20:55:58.521Z,72.70
2023-04-10T20:58:29.379Z,73.29
2023-04-10T21:01:01.024Z,73.52
2023-04-10T21:03:29.379Z,73.47
2023-04-10T21:05:57.914Z,73.48
2023-04-10T21:08:26.238Z,73.74
2023-04-10T21:10:56.439Z,73.77
2023-04-10T21:13:24.644Z,73.80
2023-04-10T21:15:54.254Z,73.97
2023-04-10T21:18:24.004Z,74.27
2023-04-10T21:21:04.198Z,74.96
2023-04-10T21:23:32.492Z,74.78
2023-04-10T21:26:01.634Z,74.97
2023-04-10T21:28:29.889Z,75.17
2023-04-10T21:30:59.628Z,75.42
2023-04-10T21:33:27.909Z,75.63
2023-04-10T21:35:57.524Z,75.90
2023-04-10T21:38:26.529Z,75.81
2023-04-10T21:40:55.700Z,76.14
2023-04-10T21:43:24.142Z,75.72
2023-04-10T21:45:52.466Z,76.18
2023-04-10T21:48:22.093Z,77.06
2023-04-10T21:50:51.560Z,76.51
2023-04-10T21:53:19.738Z,77.29
2023-04-10T21:55:54.388Z,77.17
2023-04-10T21:58:22.535Z,77.19
2023-04-10T22:00:51.917Z,77.46
2023-04-10T22:03:22.385Z,78.04
2023-04-10T22:05:50.710Z,78.17
2023-04-10T22:08:20.330Z,78.01
2023-04-10T22:10:49.073Z,78.00
2023-04-10T22:13:29.741Z,78.28
2023-04-10T22:16:02.391Z,78.10
2023-04-10T22:18:34.039Z,78.24
2023-04-10T22:21:02.178Z,79.16
2023-04-10T22:23:30.543Z,78.82
2023-04-10T22:26:00.921Z,79.14
2023-04-10T22:28:29.219Z,78.49
2023-04-10T22:31:03.262Z,78.88
2023-04-10T22:33:34.717Z,78.60
2023-04-10T22:36:02.901Z,79.16
2023-04-10T22:38:31.539Z,79.38
2023-04-10T22:40:59.921Z,78.80
2023-04-10T22:43:34.683Z,79.48
2023-04-10T22:46:02.923Z,79.44
2023-04-10T22:48:31.176Z,79.52
2023-04-10T22:51:01.476Z,79.55
2023-04-10T22:53:30.074Z,79.85
2023-04-10T22:55:58.407Z,79.61
2023-04-10T22:58:26.509Z,79.45
2023-04-10T23:00:56.836Z,79.31
2023-04-10T23:03:25.187Z,79.83
2023-04-10T23:05:53.496Z,79.36
2023-04-10T23:08:23.552Z,79.34
2023-04-10T23:10:57.719Z,79.79
2023-04-10T23:13:25.957Z,79.37
2023-04-10T23:16:03.290Z,80.56
2023-04-10T23:18:31.527Z,80.57
2023-04-10T23:21:00.150Z,80.54
2023-04-10T23:23:29.726Z,80.76
2023-04-10T23:26:01.296Z,80.78
2023-04-10T23:28:29.704Z,80.80
2023-04-10T23:31:00.954Z,81.00
2023-04-10T23:33:29.319Z,81.07
2023-04-10T23:36:00.689Z,80.81
2023-04-10T23:38:31.023Z,81.26
2023-04-10T23:41:03.021Z,81.94
2023-04-10T23:43:40.155Z,81.82
2023-04-10T23:46:08.735Z,81.77
2023-04-10T23:48:36.871Z,82.02
2023-04-10T23:51:06.378Z,82.10
2023-04-10T23:53:36.383Z,82.57
2023-04-10T23:56:04.561Z,82.64
2023-04-10T23:58:32.788Z,82.13
